createdAt,value
2023-06-13T00:00:12.071Z,38.80
2023-06-13T00:02:39.871Z,38.99
2023-06-13T00:05:22.563Z,39.33
2023-06-13T00:07:50.991Z,39.03
2023-06-13T00:10:18.612Z,39.15
2023-06-13T00:12:50.740Z,38.75
2023-06-13T00:15:19.483Z,38.82
2023-06-13T00:17:49.744Z,39.24
2023-06-13T00:20:17.610Z,38.54
2023-06-13T00:22:46.509Z,38.94
2023-06-13T00:25:14.139Z,38.68
2023-06-13T00:27:41.661Z,38.53
2023-06-13T00:30:09.778Z,38.79
2023-06-13T00:32:37.330Z,38.68
2023-06-13T00:35:05.948Z,39.10
2023-06-13T00:37:35.801Z,38.45
2023-06-13T00:40:03.972Z,38.42
2023-06-13T00:42:33.292Z,38.56
2023-06-13T00:45:29.314Z,38.93
2023-06-13T00:48:06.363Z,38.81
2023-06-13T00:50:44.591Z,39.02
2023-06-13T00:53:19.681Z,39.40
2023-06-13T00:55:48.842Z,39.10
2023-06-13T00:58:18.170Z,39.21
2023-06-13T01:00:46.891Z,39.32
2023-06-13T01:03:17.736Z,39.10
2023-06-13T01:05:48.168Z,39.29
2023-06-13T01:08:28.437Z,39.12
2023-06-13T01:11:22.395Z,39.17
2023-06-13T01:14:15.771Z,38.92
2023-06-13T01:17:04.635Z,39.28
2023-06-13T01:19:44.675Z,38.93
2023-06-13T01:22:24.765Z,39.42
2023-06-13T01:25:38.635Z,39.14
2023-06-13T01:28:09.314Z,39.44
2023-06-13T01:30:37.273Z,39.60
2023-06-13T01:33:06.112Z,39.85
2023-06-13T01:35:33.899Z,40.07
2023-06-13T01:38:01.856Z,39.98
2023-06-13T01:40:29.363Z,40.70
2023-06-13T01:42:56.878Z,40.91
2023-06-13T01:45:25.888Z,41.17
2023-06-13T01:48:30.667Z,41.54
2023-06-13T01:51:25.933Z,41.15
2023-06-13T01:54:00.225Z,41.74
2023-06-13T01:56:33.053Z,42.16
2023-06-13T01:59:09.024Z,42.20
2023-06-13T02:01:40.374Z,42.88
2023-06-13T02:04:08.224Z,43.20
2023-06-13T02:06:36.643Z,43.80
2023-06-13T02:09:05.100Z,44.60
2023-06-13T02:11:32.724Z,44.84
2023-06-13T02:14:00.188Z,44.55
2023-06-13T02:16:31.160Z,45.10
2023-06-13T02:19:01.318Z,45.75
2023-06-13T02:21:31.374Z,45.40
2023-06-13T02:24:00.060Z,46.06
2023-06-13T02:26:30.459Z,46.14
2023-06-13T02:28:59.381Z,46.88
2023-06-13T02:31:27.817Z,46.68
2023-06-13T02:33:55.475Z,46.79
2023-06-13T02:36:22.961Z,47.15
2023-06-13T02:38:50.478Z,47.12
2023-06-13T02:41:17.942Z,47.54
2023-06-13T02:43:45.533Z,47.09
2023-06-13T02:46:13.072Z,47.47
2023-06-13T02:48:41.520Z,48.07
2023-06-13T02:51:08.996Z,47.72
2023-06-13T02:53:36.650Z,47.39
2023-06-13T02:56:04.483Z,47.60
2023-06-13T02:58:31.994Z,48.16
2023-06-13T03:00:59.482Z,48.55
2023-06-13T03:03:27.103Z,49.29
2023-06-13T03:05:57.587Z,49.92
2023-06-13T03:08:26.410Z,49.26
2023-06-13T03:10:54.532Z,50.26
2023-06-13T03:13:22.189Z,49.66
2023-06-13T03:15:49.685Z,50.70
2023-06-13T03:18:17.568Z,51.30
2023-06-13T03:20:47.514Z,50.76
2023-06-13T03:23:16.826Z,50.71
2023-06-13T03:25:47.042Z,50.63
2023-06-13T03:28:14.652Z,51.47
2023-06-13T03:30:42.170Z,50.49
2023-06-13T03:33:11.294Z,50.93
2023-06-13T03:35:39.617Z,50.95
2023-06-13T03:38:07.427Z,51.90
2023-06-13T03:40:35.021Z,51.93
2023-06-13T03:43:02.644Z,52.47
2023-06-13T03:45:30.383Z,52.43
2023-06-13T03:47:57.979Z,52.79
2023-06-13T03:50:25.553Z,52.60
2023-06-13T03:52:53.118Z,53.52
2023-06-13T04:16:53.666Z,56.79
2023-06-13T04:19:21.904Z,51.40
2023-06-13T04:21:49.809Z,53.96
2023-06-13T04:24:17.868Z,55.37
2023-06-13T04:26:48.987Z,55.52
2023-06-13T04:29:20.239Z,52.03
2023-06-13T04:31:48.065Z,51.61
2023-06-13T04:34:15.954Z,49.04
2023-06-13T04:36:45.599Z,49.19
2023-06-13T04:39:13.644Z,48.24
2023-06-13T04:41:44.905Z,48.49
2023-06-13T04:44:14.689Z,47.13
2023-06-13T04:46:42.610Z,46.89
2023-06-13T04:49:10.602Z,46.70
2023-06-13T04:51:39.161Z,46.64
2023-06-13T04:54:10.554Z,46.87
2023-06-13T04:56:41.541Z,46.49
2023-06-13T04:59:09.843Z,45.80
2023-06-13T05:01:39.076Z,46.08
2023-06-13T05:04:07.217Z,46.27
2023-06-13T05:06:39.192Z,45.67
2023-06-13T05:09:09.793Z,45.75
2023-06-13T05:11:37.268Z,45.26
2023-06-13T05:14:04.818Z,45.49
2023-06-13T05:16:33.192Z,45.65
2023-06-13T05:19:01.564Z,45.36
2023-06-13T05:21:30.634Z,45.08
2023-06-13T05:23:59.880Z,44.87
2023-06-13T05:26:29.285Z,45.42
2023-06-13T05:28:58.817Z,44.73
2023-06-13T05:31:26.428Z,44.78
2023-06-13T05:33:53.929Z,44.80
2023-06-13T05:36:21.424Z,44.81
2023-06-13T05:38:48.929Z,44.56
2023-06-13T05:41:16.389Z,44.54
2023-06-13T05:43:43.881Z,44.75
2023-06-13T05:46:11.605Z,44.42
2023-06-13T05:48:39.099Z,44.96
2023-06-13T05:51:06.717Z,44.08
2023-06-13T05:53:34.205Z,44.29
2023-06-13T05:56:01.928Z,43.94
2023-06-13T05:58:29.629Z,43.81
2023-06-13T06:00:59.093Z,43.65
2023-06-13T06:03:26.978Z,43.69
2023-06-13T06:05:54.496Z,44.15
2023-06-13T06:08:22.115Z,44.27
2023-06-13T06:10:50.189Z,43.28
2023-06-13T06:13:17.706Z,43.31
2023-06-13T06:15:45.183Z,44.38
2023-06-13T06:18:13.275Z,44.08
2023-06-13T06:20:40.867Z,44.27
2023-06-13T06:23:08.390Z,43.74
2023-06-13T06:25:36.445Z,43.39
2023-06-13T06:28:04.026Z,43.17
2023-06-13T06:30:31.905Z,43.47
2023-06-13T06:32:59.616Z,42.55
2023-06-13T06:35:27.201Z,42.94
2023-06-13T06:37:54.706Z,43.58
2023-06-13T06:40:23.136Z,44.15
2023-06-13T06:42:50.614Z,43.21
2023-06-13T06:45:18.058Z,42.97
2023-06-13T06:47:45.800Z,42.70
2023-06-13T06:50:13.511Z,42.93
2023-06-13T06:52:41.335Z,43.61
2023-06-13T06:55:08.912Z,41.51
2023-06-13T06:57:36.856Z,41.43
2023-06-13T07:00:05.679Z,41.53
2023-06-13T07:02:33.749Z,41.43
2023-06-13T07:05:01.694Z,41.28
2023-06-13T07:07:29.337Z,41.11
2023-06-13T07:09:57.079Z,42.49
2023-06-13T07:12:24.612Z,41.67
2023-06-13T07:14:52.116Z,41.19
2023-06-13T07:17:19.729Z,41.04
2023-06-13T07:19:47.230Z,40.69
2023-06-13T07:22:14.697Z,40.86
2023-06-13T07:24:42.649Z,40.37
2023-06-13T07:27:10.152Z,40.40
2023-06-13T07:29:37.925Z,40.85
2023-06-13T07:32:07.006Z,40.83
2023-06-13T07:34:59.242Z,40.45
2023-06-13T07:37:22.627Z,40.17
2023-06-13T07:39:51.095Z,40.56
2023-06-13T07:42:18.571Z,40.55
2023-06-13T07:44:46.201Z,39.88
2023-06-13T07:47:13.822Z,39.89
2023-06-13T07:49:41.356Z,39.76
2023-06-13T07:52:09.799Z,40.04
2023-06-13T07:54:37.996Z,40.49
2023-06-13T07:57:19.310Z,40.65
2023-06-13T07:59:56.663Z,39.32
2023-06-13T08:02:27.837Z,39.58
2023-06-13T08:04:56.294Z,39.90
2023-06-13T08:07:24.215Z,40.16
2023-06-13T08:09:51.830Z,40.91
2023-06-13T08:12:19.316Z,40.46
2023-06-13T08:14:46.807Z,39.69
2023-06-13T08:17:14.311Z,39.42
2023-06-13T08:19:41.778Z,40.03
2023-06-13T08:22:09.382Z,40.30
2023-06-13T08:24:36.899Z,39.56
2023-06-13T08:27:05.047Z,39.59
2023-06-13T08:29:32.570Z,40.17
2023-06-13T08:32:00.889Z,39.57
2023-06-13T08:34:28.548Z,39.12
2023-06-13T08:36:56.220Z,39.17
2023-06-13T08:39:24.020Z,39.31
2023-06-13T08:41:52.103Z,38.81
2023-06-13T08:44:20.090Z,39.39
2023-06-13T08:46:47.794Z,39.47
2023-06-13T08:49:15.497Z,40.00
2023-06-13T08:51:46.681Z,40.49
2023-06-13T08:54:16.375Z,40.83
2023-06-13T08:56:46.775Z,40.14
2023-06-13T08:59:23.951Z,39.75
2023-06-13T09:01:52.097Z,39.15
2023-06-13T09:04:20.171Z,39.69
2023-06-13T09:06:49.655Z,38.77
2023-06-13T09:09:17.823Z,39.72
2023-06-13T09:11:50.957Z,40.10
2023-06-13T09:14:21.059Z,38.62
2023-06-13T09:16:55.578Z,38.52
2023-06-13T09:19:23.357Z,39.66
2023-06-13T09:21:51.632Z,38.85
2023-06-13T09:24:19.544Z,38.88
2023-06-13T09:26:47.268Z,38.52
2023-06-13T09:31:45.197Z,39.96
2023-06-13T09:34:18.814Z,40.67
2023-06-13T09:36:46.916Z,40.55
2023-06-13T09:39:14.499Z,40.46
2023-06-13T09:41:42.807Z,39.52
2023-06-13T09:44:11.224Z,40.64
2023-06-13T09:46:38.861Z,40.02
2023-06-13T09:49:07.570Z,39.22
2023-06-13T09:51:35.100Z,40.18
2023-06-13T09:54:03.849Z,39.71
2023-06-13T09:56:31.384Z,40.58
2023-06-13T09:58:58.873Z,39.93
2023-06-13T10:01:27.030Z,39.66
2023-06-13T10:03:54.534Z,40.07
2023-06-13T10:06:22.028Z,38.38
2023-06-13T10:08:49.584Z,39.61
2023-06-13T10:11:28.829Z,40.03
2023-06-13T10:14:13.283Z,38.87
2023-06-13T10:17:03.607Z,39.81
2023-06-13T10:19:42.667Z,39.75
2023-06-13T10:22:12.165Z,39.99
2023-06-13T10:24:41.339Z,39.74
2023-06-13T10:27:11.462Z,39.91
2023-06-13T10:30:24.959Z,40.20
2023-06-13T10:33:19.528Z,40.41
2023-06-13T10:37:03.882Z,39.68
2023-06-13T10:40:31.892Z,40.11
2023-06-13T10:43:39.679Z,38.97
2023-06-13T10:46:10.131Z,38.10
2023-06-13T10:48:50.910Z,39.21
2023-06-13T10:51:30.309Z,38.64
2023-06-13T10:54:03.680Z,38.18
2023-06-13T10:56:40.553Z,38.71
2023-06-13T10:59:31.487Z,38.47
2023-06-13T11:01:58.987Z,38.56
2023-06-13T11:04:30.878Z,38.38
2023-06-13T11:07:27.696Z,38.48
2023-06-13T11:10:17.673Z,37.83
2023-06-13T11:12:46.417Z,38.24
2023-06-13T11:15:29.843Z,38.30
2023-06-13T11:18:23.433Z,38.28
2023-06-13T11:20:59.779Z,37.52
2023-06-13T11:23:55.117Z,37.60
2023-06-13T11:26:23.021Z,37.71
2023-06-13T11:28:54.418Z,37.28
2023-06-13T11:31:22.812Z,36.91
2023-06-13T11:33:55.190Z,37.29
2023-06-13T11:36:29.483Z,37.39
2023-06-13T11:39:10.260Z,37.71
2023-06-13T11:41:38.728Z,37.05
2023-06-13T11:44:07.015Z,37.58
2023-06-13T11:46:35.471Z,37.43
2023-06-13T11:49:03.100Z,37.25
2023-06-13T11:51:32.182Z,36.67
2023-06-13T11:54:02.639Z,36.93
2023-06-13T11:56:35.924Z,37.33
2023-06-13T11:59:26.817Z,36.75
2023-06-13T12:01:56.379Z,37.25
2023-06-13T12:04:27.357Z,36.25
2023-06-13T12:06:55.551Z,37.09
2023-06-13T12:09:23.451Z,36.15
2023-06-13T12:11:53.215Z,35.67
2023-06-13T12:14:22.031Z,35.85
2023-06-13T12:16:55.256Z,36.14
2023-06-13T12:19:24.547Z,35.73
2023-06-13T12:22:00.374Z,35.71
2023-06-13T12:24:28.643Z,35.57
2023-06-13T12:26:56.576Z,35.92
2023-06-13T12:29:29.460Z,36.02
2023-06-13T12:32:04.874Z,35.40
2023-06-13T12:34:34.406Z,35.60
2023-06-13T12:37:06.371Z,34.66
2023-06-13T12:39:35.631Z,34.46
2023-06-13T12:42:11.727Z,33.92
2023-06-13T12:44:39.231Z,34.29
2023-06-13T12:47:08.471Z,33.81
2023-06-13T12:49:41.295Z,34.23
2023-06-13T12:52:17.324Z,33.27
2023-06-13T12:54:45.264Z,33.79
2023-06-13T12:57:17.170Z,33.64
2023-06-13T12:59:52.651Z,33.09
2023-06-13T13:02:28.418Z,32.82
2023-06-13T13:05:01.995Z,32.98
2023-06-13T13:07:31.313Z,32.19
2023-06-13T13:10:00.783Z,32.13
2023-06-13T13:12:28.719Z,32.65
2023-06-13T13:14:56.181Z,32.49
2023-06-13T13:17:24.019Z,32.47
2023-06-13T13:19:54.571Z,32.54
2023-06-13T13:22:22.938Z,32.14
2023-06-13T13:24:50.686Z,32.05
2023-06-13T13:27:18.241Z,31.93
2023-06-13T13:29:47.070Z,32.32
2023-06-13T13:32:14.589Z,32.55
2023-06-13T13:34:42.244Z,31.33
2023-06-13T13:37:09.781Z,31.72
2023-06-13T13:39:37.280Z,32.20
2023-06-13T13:42:14.204Z,31.05
2023-06-13T13:44:53.543Z,31.77
2023-06-13T13:47:21.178Z,30.81
2023-06-13T13:49:48.654Z,30.79
2023-06-13T13:52:16.207Z,30.69
2023-06-13T13:54:43.982Z,30.57
2023-06-13T13:57:11.827Z,31.05
2023-06-13T13:59:39.483Z,30.44
2023-06-13T14:02:07.317Z,30.46
2023-06-13T14:04:35.084Z,30.55
2023-06-13T14:07:02.659Z,30.24
2023-06-13T14:09:30.133Z,29.80
2023-06-13T14:11:57.642Z,29.91
2023-06-13T14:14:25.720Z,29.80
2023-06-13T14:16:53.761Z,29.65
2023-06-13T14:19:21.836Z,29.87
2023-06-13T14:21:49.897Z,29.70
2023-06-13T14:24:17.840Z,29.51
2023-06-13T14:26:45.436Z,30.36
2023-06-13T14:29:12.892Z,29.62
2023-06-13T14:31:40.471Z,28.66
2023-06-13T14:34:08.050Z,29.45
2023-06-13T14:36:35.645Z,27.87
2023-06-13T14:39:06.673Z,27.70
2023-06-13T14:41:34.281Z,27.75
2023-06-13T14:44:01.933Z,27.84
2023-06-13T14:46:29.881Z,27.48
2023-06-13T14:48:57.350Z,27.61
2023-06-13T14:51:24.833Z,27.74
2023-06-13T14:53:52.368Z,26.89
2023-06-13T14:56:19.836Z,27.60
2023-06-13T14:58:47.334Z,26.99
2023-06-13T15:01:15.108Z,26.63
2023-06-13T15:03:47.356Z,27.07
2023-06-13T15:06:15.021Z,26.20
2023-06-13T15:08:42.501Z,26.59
2023-06-13T15:11:11.695Z,26.22
2023-06-13T15:13:39.830Z,26.26
2023-06-13T15:16:10.382Z,24.95
2023-06-13T15:18:38.124Z,25.42
2023-06-13T15:21:06.689Z,24.92
2023-06-13T15:23:34.463Z,25.39
2023-06-13T15:26:02.065Z,25.45
2023-06-13T15:28:30.174Z,24.78
2023-06-13T15:30:58.090Z,24.65
2023-06-13T15:33:31.562Z,24.76
2023-06-13T15:36:00.282Z,24.78
2023-06-13T15:38:27.802Z,24.76
2023-06-13T15:40:55.539Z,24.93
2023-06-13T15:43:23.026Z,24.79
2023-06-13T15:45:50.838Z,24.15
2023-06-13T15:48:18.315Z,25.54
2023-06-13T15:50:46.084Z,24.94
2023-06-13T15:53:13.973Z,24.79
2023-06-13T15:55:43.241Z,24.84
2023-06-13T15:58:12.206Z,24.95
2023-06-13T16:00:41.791Z,24.50
2023-06-13T16:03:10.327Z,24.49
2023-06-13T16:05:38.190Z,24.56
2023-06-13T16:08:06.145Z,25.30
2023-06-13T16:10:33.657Z,24.64
2023-06-13T16:13:01.245Z,24.45
2023-06-13T16:15:29.877Z,24.86
2023-06-13T16:17:57.518Z,24.32
2023-06-13T16:20:25.105Z,23.74
2023-06-13T16:22:52.744Z,24.08
2023-06-13T16:25:20.466Z,23.89
2023-06-13T16:27:48.085Z,23.22
2023-06-13T16:30:15.684Z,23.40
2023-06-13T16:32:44.149Z,23.37
2023-06-13T16:35:11.849Z,23.20
2023-06-13T16:37:40.863Z,22.63
2023-06-13T16:40:09.236Z,22.87
2023-06-13T16:42:37.749Z,22.69
2023-06-13T16:45:06.454Z,22.90
2023-06-13T16:47:34.142Z,22.42
2023-06-13T16:50:01.726Z,22.50
2023-06-13T16:52:32.422Z,22.20
2023-06-13T16:55:00.402Z,22.20
2023-06-13T16:57:27.908Z,22.65
2023-06-13T16:59:55.589Z,22.74
2023-06-13T17:02:23.326Z,22.90
2023-06-13T17:04:50.813Z,22.33
2023-06-13T17:07:18.268Z,22.14
2023-06-13T17:09:45.836Z,21.59
2023-06-13T17:12:14.213Z,21.13
2023-06-13T17:14:42.052Z,21.54
2023-06-13T17:17:09.667Z,21.66
2023-06-13T17:19:37.384Z,21.65
2023-06-13T17:22:05.227Z,21.40
2023-06-13T17:24:33.651Z,21.58
2023-06-13T17:27:02.460Z,21.71
2023-06-13T17:29:30.646Z,21.81
2023-06-13T17:31:58.951Z,22.05
2023-06-13T17:34:27.198Z,21.44
2023-06-13T17:36:55.957Z,21.13
2023-06-13T17:39:23.720Z,21.45
2023-06-13T17:41:52.240Z,21.52
2023-06-13T17:44:19.742Z,21.54
2023-06-13T17:46:47.303Z,21.15
2023-06-13T17:49:14.883Z,20.71
2023-06-13T17:51:42.414Z,20.71
2023-06-13T17:54:10.875Z,20.79
2023-06-13T17:56:39.265Z,21.10
2023-06-13T17:59:07.587Z,21.16
2023-06-13T18:01:35.681Z,21.25
2023-06-13T18:04:03.401Z,21.31
2023-06-13T18:06:30.916Z,21.66
2023-06-13T18:08:58.816Z,21.37
2023-06-13T18:11:26.678Z,21.53
2023-06-13T18:13:56.612Z,21.48
2023-06-13T18:16:24.273Z,21.78
2023-06-13T18:18:51.819Z,22.14
2023-06-13T18:21:19.286Z,22.16
2023-06-13T18:23:46.911Z,22.47
2023-06-13T18:26:14.528Z,22.95
2023-06-13T18:28:42.161Z,22.69
2023-06-13T18:31:09.944Z,23.03
2023-06-13T18:33:38.388Z,23.13
2023-06-13T18:36:06.005Z,23.59
2023-06-13T18:38:35.548Z,23.54
2023-06-13T18:41:03.173Z,23.66
2023-06-13T18:43:30.791Z,23.49
2023-06-13T18:45:58.390Z,23.54
2023-06-13T18:48:26.385Z,23.76
2023-06-13T18:50:53.996Z,23.58
2023-06-13T18:53:21.657Z,24.05
2023-06-13T18:55:49.733Z,23.47
2023-06-13T18:58:17.416Z,24.01
2023-06-13T19:00:46.224Z,23.91
2023-06-13T19:03:14.815Z,23.58
2023-06-13T19:05:42.958Z,23.75
2023-06-13T19:08:10.586Z,24.12
2023-06-13T19:10:38.194Z,24.02
2023-06-13T19:13:05.819Z,24.01
2023-06-13T19:15:33.727Z,25.16
2023-06-13T19:18:01.720Z,24.13
2023-06-13T19:20:29.409Z,26.58
2023-06-13T19:22:56.980Z,24.23
2023-06-13T19:25:26.611Z,25.53
2023-06-13T19:28:10.013Z,24.69
2023-06-13T19:30:44.669Z,24.26
2023-06-13T19:33:12.276Z,24.22
2023-06-13T19:35:41.522Z,24.33
2023-06-13T19:38:09.118Z,25.86
2023-06-13T19:40:36.831Z,25.11
2023-06-13T19:43:04.378Z,24.90
2023-06-13T19:45:32.455Z,24.42
2023-06-13T19:48:09.569Z,24.97
2023-06-13T19:50:37.333Z,24.94
2023-06-13T19:53:06.358Z,24.87
2023-06-13T19:55:34.892Z,24.65
2023-06-13T19:58:03.190Z,25.21
2023-06-13T20:00:31.583Z,25.15
2023-06-13T20:02:59.449Z,25.29
2023-06-13T20:05:27.096Z,25.53
2023-06-13T20:07:54.582Z,25.93
2023-06-13T20:10:22.183Z,25.15
2023-06-13T20:12:49.778Z,25.48
2023-06-13T20:15:17.720Z,25.18
2023-06-13T20:17:47.232Z,25.50
2023-06-13T20:20:15.096Z,25.78
2023-06-13T20:22:45.633Z,26.01
2023-06-13T20:25:13.843Z,25.55
2023-06-13T20:27:41.970Z,26.06
2023-06-13T20:30:10.992Z,27.00
2023-06-13T20:32:38.538Z,25.98
2023-06-13T20:35:08.182Z,26.48
2023-06-13T20:37:36.064Z,26.98
2023-06-13T20:40:05.605Z,26.71
2023-06-13T20:42:34.564Z,27.26
2023-06-13T20:45:09.537Z,26.70
2023-06-13T20:47:39.259Z,26.72
2023-06-13T20:50:12.957Z,27.01
2023-06-13T20:52:40.520Z,27.01
2023-06-13T20:55:09.305Z,26.75
2023-06-13T20:57:38.267Z,27.10
2023-06-13T21:00:23.211Z,27.24
2023-06-13T21:02:54.394Z,27.48
2023-06-13T21:05:27.118Z,27.79
2023-06-13T21:07:59.430Z,27.81
2023-06-13T21:10:29.744Z,28.16
2023-06-13T21:12:57.859Z,28.10
2023-06-13T21:15:27.009Z,28.28
2023-06-13T21:17:55.821Z,27.74
2023-06-13T21:20:26.230Z,28.58
2023-06-13T21:22:55.210Z,28.61
2023-06-13T21:25:24.746Z,28.22
2023-06-13T21:27:53.160Z,28.36
2023-06-13T21:30:21.276Z,28.43
2023-06-13T21:32:49.574Z,28.39
2023-06-13T21:35:20.278Z,28.53
2023-06-13T21:37:47.843Z,29.04
2023-06-13T21:40:15.832Z,29.33
2023-06-13T21:42:43.846Z,29.26
2023-06-13T21:45:15.028Z,29.64
2023-06-13T21:47:44.980Z,29.00
2023-06-13T21:50:12.746Z,29.76
2023-06-13T21:52:41.352Z,28.96
2023-06-13T21:55:12.540Z,29.69
2023-06-13T21:57:40.151Z,28.83
2023-06-13T22:00:17.450Z,28.81
2023-06-13T22:02:46.901Z,29.14
2023-06-13T22:05:15.930Z,28.81
2023-06-13T22:07:45.456Z,29.17
2023-06-13T22:10:14.462Z,28.86
2023-06-13T22:12:44.089Z,29.23
2023-06-13T22:15:11.862Z,29.21
2023-06-13T22:17:40.166Z,29.02
2023-06-13T22:20:19.705Z,29.76
2023-06-13T22:22:48.879Z,29.41
2023-06-13T22:25:16.498Z,29.91
2023-06-13T22:27:44.017Z,30.09
2023-06-13T22:30:12.899Z,30.30
2023-06-13T22:32:40.969Z,29.62
2023-06-13T22:35:12.079Z,29.88
2023-06-13T22:37:40.069Z,30.04
2023-06-13T22:40:10.961Z,30.22
2023-06-13T22:42:39.014Z,29.89
2023-06-13T22:45:08.137Z,30.18
2023-06-13T22:47:38.307Z,30.14
2023-06-13T22:50:07.836Z,30.46
2023-06-13T22:52:38.278Z,30.86
2023-06-13T22:55:06.525Z,31.04
2023-06-13T22:57:34.084Z,30.72
2023-06-13T23:00:01.693Z,30.79
2023-06-13T23:02:30.297Z,31.18
2023-06-13T23:04:57.844Z,31.10
2023-06-13T23:07:25.333Z,30.79
2023-06-13T23:09:52.832Z,30.92
2023-06-13T23:12:20.498Z,31.13
2023-06-13T23:14:48.231Z,30.86
2023-06-13T23:17:15.965Z,30.84
2023-06-13T23:19:54.652Z,30.64
2023-06-13T23:22:22.739Z,31.25
2023-06-13T23:24:50.478Z,30.63
2023-06-13T23:27:18.933Z,31.32
2023-06-13T23:29:48.457Z,30.91
2023-06-13T23:32:17.523Z,31.96
2023-06-13T23:34:46.733Z,32.61
2023-06-13T23:37:21.760Z,33.88
2023-06-13T23:39:52.568Z,34.60
2023-06-13T23:42:20.452Z,35.33
2023-06-13T23:44:48.369Z,34.54
2023-06-13T23:47:15.996Z,34.92
2023-06-13T23:49:43.683Z,35.17
2023-06-13T23:52:11.249Z,35.15
2023-06-13T23:54:38.942Z,35.07
2023-06-13T23:57:06.719Z,35.69
2023-06-13T23:59:35.145Z,35.61
